sensor_id;sensor_type;location;lat;lon;timestamp;P1;durP1;ratioP1;P2;durP2;ratioP2
75718;SDS011;64340;48.534;-3.036;2023-02-28T00:00:33;6.18;;;1.40;;
75718;SDS011;64340;48.534;-3.036;2023-02-28T00:03:00;4.32;;;1.25;;
75718;SDS011;64340;48.534;-3.036;2023-02-28T00:05:27;4.38;;;1.15;;
75718;SDS011;64340;48.534;-3.036;2023-02-28T00:07:53;3.72;;;1.15;;
75718;SDS011;64340;48.534;-3.036;2023-02-28T00:10:24;5.57;;;1.27;;
75718;SDS011;64340;48.534;-3.036;2023-02-28T00:12:53;4.38;;;1.10;;
75718;SDS011;64340;48.534;-3.036;2023-02-28T00:15:22;3.22;;;0.90;;
75718;SDS011;64340;48.534;-3.036;2023-02-28T00:17:48;3.08;;;1.02;;
75718;SDS011;64340;48.534;-3.036;2023-02-28T00:22:42;3.17;;;0.80;;
75718;SDS011;64340;48.534;-3.036;2023-02-28T00:25:14;4.38;;;1.10;;
75718;SDS011;64340;48.534;-3.036;2023-02-28T00:27:41;3.75;;;0.80;;
75718;SDS011;64340;48.534;-3.036;2023-02-28T00:30:10;3.40;;;1.10;;
75718;SDS011;64340;48.534;-3.036;2023-02-28T00:32:38;4.25;;;0.90;;
75718;SDS011;64340;48.534;-3.036;2023-02-28T00:35:04;2.60;;;0.98;;
75718;SDS011;64340;48.534;-3.036;2023-02-28T00:37:30;3.80;;;0.90;;
75718;SDS011;64340;48.534;-3.036;2023-02-28T00:39:57;5.32;;;0.95;;
75718;SDS011;64340;48.534;-3.036;2023-02-28T00:42:23;3.45;;;0.80;;
75718;SDS011;64340;48.534;-3.036;2023-02-28T00:44:49;4.28;;;0.80;;
75718;SDS011;64340;48.534;-3.036;2023-02-28T00:47:15;4.35;;;0.88;;
75718;SDS011;64340;48.534;-3.036;2023-02-28T00:49:41;4.90;;;1.13;;
75718;SDS011;64340;48.534;-3.036;2023-02-28T00:52:07;2.28;;;0.70;;
75718;SDS011;64340;48.534;-3.036;2023-02-28T00:54:33;3.78;;;1.00;;
75718;SDS011;64340;48.534;-3.036;2023-02-28T00:56:59;1.67;;;0.60;;
75718;SDS011;64340;48.534;-3.036;2023-02-28T00:59:25;3.70;;;1.00;;
75718;SDS011;64340;48.534;-3.036;2023-02-28T01:01:50;3.88;;;0.77;;
75718;SDS011;64340;48.534;-3.036;2023-02-28T01:04:16;3.28;;;0.93;;
75718;SDS011;64340;48.534;-3.036;2023-02-28T01:06:42;2.85;;;0.90;;
75718;SDS011;64340;48.534;-3.036;2023-02-28T01:09:08;3.47;;;0.73;;
75718;SDS011;64340;48.534;-3.036;2023-02-28T01:11:35;3.70;;;1.10;;
75718;SDS011;64340;48.534;-3.036;2023-02-28T01:14:01;3.05;;;0.75;;
75718;SDS011;64340;48.534;-3.036;2023-02-28T01:16:28;3.70;;;0.75;;
75718;SDS011;64340;48.534;-3.036;2023-02-28T01:18:55;4.63;;;1.00;;
75718;SDS011;64340;48.534;-3.036;2023-02-28T01:21:21;5.30;;;0.82;;
75718;SDS011;64340;48.534;-3.036;2023-02-28T01:23:48;2.53;;;0.82;;
75718;SDS011;64340;48.534;-3.036;2023-02-28T01:26:15;3.50;;;1.17;;
75718;SDS011;64340;48.534;-3.036;2023-02-28T01:28:43;5.38;;;0.80;;
75718;SDS011;64340;48.534;-3.036;2023-02-28T01:31:10;2.67;;;0.77;;
75718;SDS011;64340;48.534;-3.036;2023-02-28T01:33:36;4.40;;;1.10;;
75718;SDS011;64340;48.534;-3.036;2023-02-28T01:36:06;3.45;;;1.00;;
75718;SDS011;64340;48.534;-3.036;2023-02-28T01:38:35;4.72;;;1.05;;
75718;SDS011;64340;48.534;-3.036;2023-02-28T01:41:01;3.25;;;0.90;;
75718;SDS011;64340;48.534;-3.036;2023-02-28T01:43:31;2.08;;;0.80;;
75718;SDS011;64340;48.534;-3.036;2023-02-28T01:46:18;3.45;;;0.85;;
75718;SDS011;64340;48.534;-3.036;2023-02-28T01:48:49;3.13;;;0.63;;
75718;SDS011;64340;48.534;-3.036;2023-02-28T01:51:20;3.22;;;0.98;;
75718;SDS011;64340;48.534;-3.036;2023-02-28T01:53:51;2.40;;;0.63;;
75718;SDS011;64340;48.534;-3.036;2023-02-28T01:56:22;3.13;;;0.63;;
75718;SDS011;64340;48.534;-3.036;2023-02-28T01:58:50;4.00;;;0.98;;
75718;SDS011;64340;48.534;-3.036;2023-02-28T02:01:17;3.58;;;0.70;;
75718;SDS011;64340;48.534;-3.036;2023-02-28T02:03:51;5.13;;;0.70;;
75718;SDS011;64340;48.534;-3.036;2023-02-28T02:06:22;2.17;;;0.63;;
75718;SDS011;64340;48.534;-3.036;2023-02-28T02:08:50;3.03;;;0.90;;
75718;SDS011;64340;48.534;-3.036;2023-02-28T02:11:18;2.20;;;0.70;;
75718;SDS011;64340;48.534;-3.036;2023-02-28T02:16:52;3.60;;;0.98;;
75718;SDS011;64340;48.534;-3.036;2023-02-28T02:19:28;2.90;;;0.63;;
75718;SDS011;64340;48.534;-3.036;2023-02-28T02:25:28;2.95;;;0.77;;
75718;SDS011;64340;48.534;-3.036;2023-02-28T02:36:46;3.20;;;1.20;;
75718;SDS011;64340;48.534;-3.036;2023-02-28T02:39:19;2.00;;;0.60;;
75718;SDS011;64340;48.534;-3.036;2023-02-28T02:41:54;3.53;;;1.13;;
75718;SDS011;64340;48.534;-3.036;2023-02-28T02:44:27;4.18;;;1.00;;
75718;SDS011;64340;48.534;-3.036;2023-02-28T02:47:17;3.05;;;0.73;;
75718;SDS011;64340;48.534;-3.036;2023-02-28T02:49:48;1.90;;;0.80;;
75718;SDS011;64340;48.534;-3.036;2023-02-28T02:52:18;3.00;;;1.10;;
75718;SDS011;64340;48.534;-3.036;2023-02-28T02:54:50;3.17;;;1.10;;
75718;SDS011;64340;48.534;-3.036;2023-02-28T02:57:26;2.40;;;0.93;;
75718;SDS011;64340;48.534;-3.036;2023-02-28T03:00:04;4.05;;;1.00;;
75718;SDS011;64340;48.534;-3.036;2023-02-28T03:02:34;5.07;;;1.50;;
75718;SDS011;64340;48.534;-3.036;2023-02-28T03:07:33;3.58;;;1.20;;
75718;SDS011;64340;48.534;-3.036;2023-02-28T03:09:59;2.17;;;1.38;;
75718;SDS011;64340;48.534;-3.036;2023-02-28T03:12:32;3.63;;;1.25;;
75718;SDS011;64340;48.534;-3.036;2023-02-28T03:15:23;4.10;;;1.33;;
75718;SDS011;64340;48.534;-3.036;2023-02-28T03:18:04;3.25;;;1.23;;
75718;SDS011;64340;48.534;-3.036;2023-02-28T03:26:06;3.05;;;1.58;;
75718;SDS011;64340;48.534;-3.036;2023-02-28T03:28:57;4.15;;;1.83;;
75718;SDS011;64340;48.534;-3.036;2023-02-28T03:37:23;3.70;;;1.55;;
75718;SDS011;64340;48.534;-3.036;2023-02-28T03:39:53;2.83;;;1.38;;
75718;SDS011;64340;48.534;-3.036;2023-02-28T03:42:25;3.17;;;1.50;;
75718;SDS011;64340;48.534;-3.036;2023-02-28T03:44:56;3.53;;;1.50;;
75718;SDS011;64340;48.534;-3.036;2023-02-28T03:47:26;4.20;;;1.60;;
75718;SDS011;64340;48.534;-3.036;2023-02-28T03:49:57;3.78;;;1.75;;
75718;SDS011;64340;48.534;-3.036;2023-02-28T03:52:35;4.20;;;2.08;;
75718;SDS011;64340;48.534;-3.036;2023-02-28T03:55:08;3.58;;;1.55;;
75718;SDS011;64340;48.534;-3.036;2023-02-28T04:00:31;2.92;;;1.73;;
75718;SDS011;64340;48.534;-3.036;2023-02-28T04:03:00;3.97;;;1.70;;
75718;SDS011;64340;48.534;-3.036;2023-02-28T04:05:27;3.65;;;1.50;;
75718;SDS011;64340;48.534;-3.036;2023-02-28T04:07:54;5.10;;;2.00;;
75718;SDS011;64340;48.534;-3.036;2023-02-28T04:10:28;3.90;;;1.80;;
75718;SDS011;64340;48.534;-3.036;2023-02-28T04:12:53;5.43;;;2.13;;
75718;SDS011;64340;48.534;-3.036;2023-02-28T04:15:19;4.75;;;1.95;;
75718;SDS011;64340;48.534;-3.036;2023-02-28T04:17:47;4.35;;;2.03;;
75718;SDS011;64340;48.534;-3.036;2023-02-28T04:20:13;4.38;;;2.13;;
75718;SDS011;64340;48.534;-3.036;2023-02-28T04:22:39;5.25;;;2.10;;
75718;SDS011;64340;48.534;-3.036;2023-02-28T04:25:05;5.45;;;1.92;;
75718;SDS011;64340;48.534;-3.036;2023-02-28T04:27:31;3.03;;;1.90;;
75718;SDS011;64340;48.534;-3.036;2023-02-28T04:29:57;3.40;;;2.03;;
75718;SDS011;64340;48.534;-3.036;2023-02-28T04:32:23;3.05;;;1.95;;
75718;SDS011;64340;48.534;-3.036;2023-02-28T04:34:48;3.88;;;2.10;;
75718;SDS011;64340;48.534;-3.036;2023-02-28T04:37:14;3.53;;;2.30;;
75718;SDS011;64340;48.534;-3.036;2023-02-28T04:39:40;5.03;;;2.40;;
75718;SDS011;64340;48.534;-3.036;2023-02-28T04:42:07;4.32;;;2.53;;
75718;SDS011;64340;48.534;-3.036;2023-02-28T04:44:33;4.05;;;2.47;;
75718;SDS011;64340;48.534;-3.036;2023-02-28T04:46:59;4.07;;;2.00;;
75718;SDS011;64340;48.534;-3.036;2023-02-28T04:49:25;4.93;;;2.60;;
75718;SDS011;64340;48.534;-3.036;2023-02-28T04:51:51;3.80;;;2.28;;
75718;SDS011;64340;48.534;-3.036;2023-02-28T04:54:17;3.55;;;2.50;;
75718;SDS011;64340;48.534;-3.036;2023-02-28T04:56:43;4.32;;;2.50;;
75718;SDS011;64340;48.534;-3.036;2023-02-28T04:59:09;4.35;;;2.60;;
75718;SDS011;64340;48.534;-3.036;2023-02-28T05:01:35;3.55;;;2.60;;
75718;SDS011;64340;48.534;-3.036;2023-02-28T05:04:02;4.28;;;2.70;;
75718;SDS011;64340;48.534;-3.036;2023-02-28T05:06:30;4.75;;;2.95;;
75718;SDS011;64340;48.534;-3.036;2023-02-28T05:08:57;5.72;;;2.80;;
75718;SDS011;64340;48.534;-3.036;2023-02-28T05:11:28;6.10;;;3.00;;
75718;SDS011;64340;48.534;-3.036;2023-02-28T05:13:59;4.65;;;2.85;;
75718;SDS011;64340;48.534;-3.036;2023-02-28T05:16:26;5.15;;;2.67;;
75718;SDS011;64340;48.534;-3.036;2023-02-28T05:18:52;4.65;;;2.95;;
75718;SDS011;64340;48.534;-3.036;2023-02-28T05:21:32;4.18;;;2.92;;
75718;SDS011;64340;48.534;-3.036;2023-02-28T05:24:03;4.93;;;3.22;;
75718;SDS011;64340;48.534;-3.036;2023-02-28T05:26:34;5.57;;;3.30;;
75718;SDS011;64340;48.534;-3.036;2023-02-28T05:29:01;5.80;;;3.28;;
75718;SDS011;64340;48.534;-3.036;2023-02-28T05:31:27;4.93;;;3.20;;
75718;SDS011;64340;48.534;-3.036;2023-02-28T05:33:52;6.00;;;3.25;;
75718;SDS011;64340;48.534;-3.036;2023-02-28T05:36:18;5.55;;;3.00;;
75718;SDS011;64340;48.534;-3.036;2023-02-28T05:38:48;4.93;;;3.20;;
75718;SDS011;64340;48.534;-3.036;2023-02-28T05:41:15;4.32;;;3.30;;
75718;SDS011;64340;48.534;-3.036;2023-02-28T05:43:41;4.68;;;3.47;;
75718;SDS011;64340;48.534;-3.036;2023-02-28T05:46:08;5.57;;;3.33;;
75718;SDS011;64340;48.534;-3.036;2023-02-28T05:48:38;4.63;;;3.47;;
75718;SDS011;64340;48.534;-3.036;2023-02-28T05:51:05;5.28;;;3.30;;
75718;SDS011;64340;48.534;-3.036;2023-02-28T05:53:32;7.72;;;3.63;;
75718;SDS011;64340;48.534;-3.036;2023-02-28T05:55:59;4.65;;;3.22;;
75718;SDS011;64340;48.534;-3.036;2023-02-28T05:58:25;6.75;;;3.50;;
75718;SDS011;64340;48.534;-3.036;2023-02-28T06:00:55;8.13;;;3.78;;
75718;SDS011;64340;48.534;-3.036;2023-02-28T06:03:22;4.97;;;3.67;;
75718;SDS011;64340;48.534;-3.036;2023-02-28T06:05:48;5.65;;;3.45;;
75718;SDS011;64340;48.534;-3.036;2023-02-28T06:08:13;5.78;;;3.45;;
75718;SDS011;64340;48.534;-3.036;2023-02-28T06:10:39;5.68;;;3.17;;
75718;SDS011;64340;48.534;-3.036;2023-02-28T06:13:05;5.38;;;3.53;;
75718;SDS011;64340;48.534;-3.036;2023-02-28T06:15:33;5.82;;;3.22;;
75718;SDS011;64340;48.534;-3.036;2023-02-28T06:18:02;5.32;;;3.35;;
75718;SDS011;64340;48.534;-3.036;2023-02-28T06:20:31;5.53;;;3.60;;
75718;SDS011;64340;48.534;-3.036;2023-02-28T06:22:58;5.78;;;3.63;;
75718;SDS011;64340;48.534;-3.036;2023-02-28T06:25:24;6.07;;;3.42;;
75718;SDS011;64340;48.534;-3.036;2023-02-28T06:27:51;9.43;;;4.10;;
75718;SDS011;64340;48.534;-3.036;2023-02-28T06:30:17;8.98;;;4.63;;
75718;SDS011;64340;48.534;-3.036;2023-02-28T06:32:43;8.27;;;4.07;;
75718;SDS011;64340;48.534;-3.036;2023-02-28T06:35:08;10.93;;;5.45;;
75718;SDS011;64340;48.534;-3.036;2023-02-28T06:37:35;14.82;;;5.93;;
75718;SDS011;64340;48.534;-3.036;2023-02-28T06:40:01;8.63;;;4.93;;
75718;SDS011;64340;48.534;-3.036;2023-02-28T06:42:28;15.13;;;5.72;;
75718;SDS011;64340;48.534;-3.036;2023-02-28T06:44:55;12.30;;;4.93;;
75718;SDS011;64340;48.534;-3.036;2023-02-28T06:47:21;10.30;;;5.25;;
75718;SDS011;64340;48.534;-3.036;2023-02-28T06:49:47;14.70;;;5.63;;
75718;SDS011;64340;48.534;-3.036;2023-02-28T06:52:14;10.40;;;5.05;;
75718;SDS011;64340;48.534;-3.036;2023-02-28T06:54:39;11.50;;;5.07;;
75718;SDS011;64340;48.534;-3.036;2023-02-28T06:57:06;8.68;;;5.10;;
75718;SDS011;64340;48.534;-3.036;2023-02-28T06:59:32;13.48;;;5.30;;
75718;SDS011;64340;48.534;-3.036;2023-02-28T07:01:57;10.88;;;4.70;;
75718;SDS011;64340;48.534;-3.036;2023-02-28T07:04:23;9.70;;;4.93;;
75718;SDS011;64340;48.534;-3.036;2023-02-28T07:06:49;8.65;;;4.78;;
75718;SDS011;64340;48.534;-3.036;2023-02-28T07:09:15;9.85;;;4.97;;
75718;SDS011;64340;48.534;-3.036;2023-02-28T07:11:41;8.50;;;5.10;;
75718;SDS011;64340;48.534;-3.036;2023-02-28T07:14:08;6.40;;;4.18;;
75718;SDS011;64340;48.534;-3.036;2023-02-28T07:16:34;9.13;;;4.68;;
75718;SDS011;64340;48.534;-3.036;2023-02-28T07:19:00;8.43;;;4.60;;
75718;SDS011;64340;48.534;-3.036;2023-02-28T07:21:26;8.02;;;5.10;;
75718;SDS011;64340;48.534;-3.036;2023-02-28T07:23:52;7.30;;;3.92;;
75718;SDS011;64340;48.534;-3.036;2023-02-28T07:26:19;8.00;;;4.32;;
75718;SDS011;64340;48.534;-3.036;2023-02-28T07:28:46;9.27;;;4.70;;
75718;SDS011;64340;48.534;-3.036;2023-02-28T07:31:13;6.30;;;3.65;;
75718;SDS011;64340;48.534;-3.036;2023-02-28T07:33:40;8.55;;;4.20;;
75718;SDS011;64340;48.534;-3.036;2023-02-28T07:36:07;7.50;;;4.32;;
75718;SDS011;64340;48.534;-3.036;2023-02-28T07:38:40;5.35;;;3.65;;
75718;SDS011;64340;48.534;-3.036;2023-02-28T07:41:08;6.72;;;4.10;;
75718;SDS011;64340;48.534;-3.036;2023-02-28T07:43:34;6.53;;;4.00;;
75718;SDS011;64340;48.534;-3.036;2023-02-28T07:46:04;6.68;;;3.95;;
75718;SDS011;64340;48.534;-3.036;2023-02-28T07:48:31;7.57;;;4.28;;
75718;SDS011;64340;48.534;-3.036;2023-02-28T07:50:58;7.03;;;3.47;;
75718;SDS011;64340;48.534;-3.036;2023-02-28T07:53:24;6.20;;;3.55;;
75718;SDS011;64340;48.534;-3.036;2023-02-28T07:55:51;5.60;;;3.50;;
75718;SDS011;64340;48.534;-3.036;2023-02-28T07:58:20;8.60;;;3.97;;
75718;SDS011;64340;48.534;-3.036;2023-02-28T08:00:46;5.97;;;3.67;;
75718;SDS011;64340;48.534;-3.036;2023-02-28T08:03:12;6.22;;;3.45;;
75718;SDS011;64340;48.534;-3.036;2023-02-28T08:05:39;4.88;;;3.63;;
75718;SDS011;64340;48.534;-3.036;2023-02-28T08:08:05;7.68;;;4.00;;
75718;SDS011;64340;48.534;-3.036;2023-02-28T08:10:32;5.50;;;3.45;;
75718;SDS011;64340;48.534;-3.036;2023-02-28T08:12:58;7.53;;;3.80;;
75718;SDS011;64340;48.534;-3.036;2023-02-28T08:15:23;4.93;;;3.90;;
75718;SDS011;64340;48.534;-3.036;2023-02-28T08:17:49;6.15;;;3.72;;
75718;SDS011;64340;48.534;-3.036;2023-02-28T08:20:15;4.53;;;3.38;;
75718;SDS011;64340;48.534;-3.036;2023-02-28T08:22:40;6.63;;;3.78;;
75718;SDS011;64340;48.534;-3.036;2023-02-28T08:25:06;6.30;;;3.63;;
75718;SDS011;64340;48.534;-3.036;2023-02-28T12:12:12;2.83;;;2.00;;
75718;SDS011;64340;48.534;-3.036;2023-02-28T12:15:22;3.70;;;2.22;;
75718;SDS011;64340;48.534;-3.036;2023-02-28T12:18:07;3.88;;;2.00;;
75718;SDS011;64340;48.534;-3.036;2023-02-28T12:21:39;2.80;;;2.00;;
75718;SDS011;64340;48.534;-3.036;2023-02-28T12:26:43;2.92;;;1.70;;
75718;SDS011;64340;48.534;-3.036;2023-02-28T12:31:52;3.50;;;1.88;;
75718;SDS011;64340;48.534;-3.036;2023-02-28T12:34:52;3.47;;;2.03;;
75718;SDS011;64340;48.534;-3.036;2023-02-28T12:37:29;2.80;;;1.88;;
75718;SDS011;64340;48.534;-3.036;2023-02-28T12:40:00;3.22;;;1.63;;
75718;SDS011;64340;48.534;-3.036;2023-02-28T12:42:34;4.15;;;2.00;;
75718;SDS011;64340;48.534;-3.036;2023-02-28T12:45:10;2.78;;;1.90;;
75718;SDS011;64340;48.534;-3.036;2023-02-28T12:47:39;3.50;;;2.00;;
75718;SDS011;64340;48.534;-3.036;2023-02-28T12:50:08;2.78;;;1.58;;
75718;SDS011;64340;48.534;-3.036;2023-02-28T12:55:49;3.35;;;1.98;;
75718;SDS011;64340;48.534;-3.036;2023-02-28T13:10:00;4.38;;;2.05;;
75718;SDS011;64340;48.534;-3.036;2023-02-28T13:12:28;2.42;;;1.73;;
75718;SDS011;64340;48.534;-3.036;2023-02-28T13:17:51;2.78;;;1.98;;
75718;SDS011;64340;48.534;-3.036;2023-02-28T13:20:20;4.85;;;1.83;;
75718;SDS011;64340;48.534;-3.036;2023-02-28T13:22:59;3.65;;;2.40;;
75718;SDS011;64340;48.534;-3.036;2023-02-28T13:28:11;2.97;;;1.58;;
75718;SDS011;64340;48.534;-3.036;2023-02-28T13:31:01;2.80;;;1.90;;
75718;SDS011;64340;48.534;-3.036;2023-02-28T13:33:35;4.95;;;1.90;;
75718;SDS011;64340;48.534;-3.036;2023-02-28T13:38:55;4.55;;;1.70;;
75718;SDS011;64340;48.534;-3.036;2023-02-28T14:03:22;2.83;;;1.55;;
75718;SDS011;64340;48.534;-3.036;2023-02-28T14:06:21;3.88;;;1.90;;
75718;SDS011;64340;48.534;-3.036;2023-02-28T14:08:59;3.30;;;1.70;;
75718;SDS011;64340;48.534;-3.036;2023-02-28T14:11:49;3.38;;;1.60;;
75718;SDS011;64340;48.534;-3.036;2023-02-28T14:16:59;3.30;;;1.45;;
75718;SDS011;64340;48.534;-3.036;2023-02-28T14:19:37;3.75;;;1.60;;
75718;SDS011;64340;48.534;-3.036;2023-02-28T14:22:26;2.80;;;1.52;;
75718;SDS011;64340;48.534;-3.036;2023-02-28T14:28:23;2.97;;;1.20;;
75718;SDS011;64340;48.534;-3.036;2023-02-28T14:34:17;2.35;;;1.30;;
75718;SDS011;64340;48.534;-3.036;2023-02-28T14:37:00;6.20;;;1.50;;
75718;SDS011;64340;48.534;-3.036;2023-02-28T14:39:28;12.85;;;6.53;;
75718;SDS011;64340;48.534;-3.036;2023-02-28T14:41:58;11.32;;;5.38;;
75718;SDS011;64340;48.534;-3.036;2023-02-28T14:44:28;11.90;;;4.00;;
75718;SDS011;64340;48.534;-3.036;2023-02-28T14:46:55;10.07;;;2.70;;
75718;SDS011;64340;48.534;-3.036;2023-02-28T14:52:03;7.63;;;2.72;;
75718;SDS011;64340;48.534;-3.036;2023-02-28T14:54:41;7.50;;;1.98;;
75718;SDS011;64340;48.534;-3.036;2023-02-28T14:57:20;9.13;;;2.00;;
75718;SDS011;64340;48.534;-3.036;2023-02-28T14:59:59;7.93;;;2.33;;
75718;SDS011;64340;48.534;-3.036;2023-02-28T15:02:30;5.05;;;1.70;;
75718;SDS011;64340;48.534;-3.036;2023-02-28T15:05:00;6.57;;;1.90;;
75718;SDS011;64340;48.534;-3.036;2023-02-28T15:07:41;7.45;;;1.40;;
75718;SDS011;64340;48.534;-3.036;2023-02-28T15:12:46;5.55;;;1.70;;
75718;SDS011;64340;48.534;-3.036;2023-02-28T15:15:21;5.72;;;1.50;;
75718;SDS011;64340;48.534;-3.036;2023-02-28T15:17:52;5.80;;;1.27;;
75718;SDS011;64340;48.534;-3.036;2023-02-28T15:20:21;3.80;;;1.25;;
75718;SDS011;64340;48.534;-3.036;2023-02-28T15:22:49;6.20;;;1.27;;
75718;SDS011;64340;48.534;-3.036;2023-02-28T15:25:20;6.10;;;1.55;;
75718;SDS011;64340;48.534;-3.036;2023-02-28T15:27:51;5.18;;;1.08;;
75718;SDS011;64340;48.534;-3.036;2023-02-28T15:30:29;4.63;;;1.48;;
75718;SDS011;64340;48.534;-3.036;2023-02-28T15:38:36;3.72;;;0.90;;
75718;SDS011;64340;48.534;-3.036;2023-02-28T15:41:02;3.40;;;1.02;;
75718;SDS011;64340;48.534;-3.036;2023-02-28T15:43:34;4.22;;;1.13;;
75718;SDS011;64340;48.534;-3.036;2023-02-28T15:51:08;4.30;;;0.80;;
75718;SDS011;64340;48.534;-3.036;2023-02-28T15:54:01;2.95;;;0.85;;
75718;SDS011;64340;48.534;-3.036;2023-02-28T15:56:33;2.22;;;0.65;;
75718;SDS011;64340;48.534;-3.036;2023-02-28T15:59:07;2.15;;;0.90;;
75718;SDS011;64340;48.534;-3.036;2023-02-28T16:01:43;2.90;;;0.80;;
75718;SDS011;64340;48.534;-3.036;2023-02-28T16:09:10;1.92;;;0.65;;
75718;SDS011;64340;48.534;-3.036;2023-02-28T16:11:42;2.45;;;0.65;;
75718;SDS011;64340;48.534;-3.036;2023-02-28T16:14:14;2.70;;;0.75;;
75718;SDS011;64340;48.534;-3.036;2023-02-28T16:16:44;2.75;;;0.57;;
75718;SDS011;64340;48.534;-3.036;2023-02-28T16:19:15;3.50;;;0.70;;
75718;SDS011;64340;48.534;-3.036;2023-02-28T16:21:40;2.55;;;0.63;;
75718;SDS011;64340;48.534;-3.036;2023-02-28T16:24:06;2.45;;;0.80;;
75718;SDS011;64340;48.534;-3.036;2023-02-28T16:26:32;3.85;;;0.70;;
75718;SDS011;64340;48.534;-3.036;2023-02-28T16:28:59;1.88;;;0.40;;
75718;SDS011;64340;48.534;-3.036;2023-02-28T16:31:27;2.70;;;0.90;;
75718;SDS011;64340;48.534;-3.036;2023-02-28T16:33:53;3.92;;;0.90;;
75718;SDS011;64340;48.534;-3.036;2023-02-28T16:36:20;7.47;;;1.08;;
75718;SDS011;64340;48.534;-3.036;2023-02-28T16:38:48;3.83;;;0.80;;
75718;SDS011;64340;48.534;-3.036;2023-02-28T16:41:20;3.22;;;1.00;;
75718;SDS011;64340;48.534;-3.036;2023-02-28T16:43:49;4.18;;;0.95;;
75718;SDS011;64340;48.534;-3.036;2023-02-28T16:46:17;2.78;;;0.52;;
75718;SDS011;64340;48.534;-3.036;2023-02-28T16:48:44;8.55;;;1.10;;
75718;SDS011;64340;48.534;-3.036;2023-02-28T16:51:13;4.15;;;0.57;;
75718;SDS011;64340;48.534;-3.036;2023-02-28T16:53:40;2.95;;;0.65;;
75718;SDS011;64340;48.534;-3.036;2023-02-28T16:56:09;5.55;;;0.90;;
75718;SDS011;64340;48.534;-3.036;2023-02-28T16:58:43;3.42;;;0.65;;
75718;SDS011;64340;48.534;-3.036;2023-02-28T17:01:10;3.10;;;0.80;;
75718;SDS011;64340;48.534;-3.036;2023-02-28T17:03:36;1.70;;;0.50;;
75718;SDS011;64340;48.534;-3.036;2023-02-28T17:06:02;3.42;;;0.80;;
75718;SDS011;64340;48.534;-3.036;2023-02-28T17:08:29;1.48;;;0.63;;
75718;SDS011;64340;48.534;-3.036;2023-02-28T17:10:57;7.22;;;1.00;;
75718;SDS011;64340;48.534;-3.036;2023-02-28T17:13:24;3.35;;;0.80;;
75718;SDS011;64340;48.534;-3.036;2023-02-28T17:15:50;3.22;;;1.00;;
75718;SDS011;64340;48.534;-3.036;2023-02-28T17:18:16;2.97;;;0.85;;
75718;SDS011;64340;48.534;-3.036;2023-02-28T17:20:44;3.53;;;0.70;;
75718;SDS011;64340;48.534;-3.036;2023-02-28T17:23:11;3.63;;;1.05;;
75718;SDS011;64340;48.534;-3.036;2023-02-28T17:25:37;4.63;;;0.75;;
75718;SDS011;64340;48.534;-3.036;2023-02-28T17:28:03;1.65;;;0.63;;
75718;SDS011;64340;48.534;-3.036;2023-02-28T17:30:29;4.07;;;0.93;;
75718;SDS011;64340;48.534;-3.036;2023-02-28T17:32:57;2.28;;;0.70;;
75718;SDS011;64340;48.534;-3.036;2023-02-28T17:35:23;4.88;;;0.80;;
75718;SDS011;64340;48.534;-3.036;2023-02-28T17:37:51;4.05;;;0.98;;
75718;SDS011;64340;48.534;-3.036;2023-02-28T17:40:21;5.72;;;0.77;;
75718;SDS011;64340;48.534;-3.036;2023-02-28T17:42:48;3.38;;;0.68;;
75718;SDS011;64340;48.534;-3.036;2023-02-28T17:45:14;3.42;;;1.00;;
75718;SDS011;64340;48.534;-3.036;2023-02-28T17:47:40;2.83;;;0.80;;
75718;SDS011;64340;48.534;-3.036;2023-02-28T17:50:14;2.28;;;0.77;;
75718;SDS011;64340;48.534;-3.036;2023-02-28T17:52:42;1.98;;;0.90;;
75718;SDS011;64340;48.534;-3.036;2023-02-28T17:55:09;2.78;;;0.95;;
75718;SDS011;64340;48.534;-3.036;2023-02-28T17:57:35;2.38;;;0.80;;
75718;SDS011;64340;48.534;-3.036;2023-02-28T18:00:01;2.78;;;0.80;;
75718;SDS011;64340;48.534;-3.036;2023-02-28T18:02:31;3.90;;;1.20;;
75718;SDS011;64340;48.534;-3.036;2023-02-28T18:04:57;2.33;;;0.68;;
75718;SDS011;64340;48.534;-3.036;2023-02-28T18:07:23;2.42;;;0.80;;
75718;SDS011;64340;48.534;-3.036;2023-02-28T18:09:49;2.63;;;0.80;;
75718;SDS011;64340;48.534;-3.036;2023-02-28T18:12:15;6.40;;;1.70;;
75718;SDS011;64340;48.534;-3.036;2023-02-28T18:14:41;8.48;;;2.15;;
75718;SDS011;64340;48.534;-3.036;2023-02-28T18:17:09;7.00;;;2.67;;
75718;SDS011;64340;48.534;-3.036;2023-02-28T18:19:37;10.60;;;3.00;;
75718;SDS011;64340;48.534;-3.036;2023-02-28T18:22:03;14.65;;;3.95;;
75718;SDS011;64340;48.534;-3.036;2023-02-28T18:24:31;11.23;;;3.40;;
75718;SDS011;64340;48.534;-3.036;2023-02-28T18:26:57;11.63;;;3.53;;
75718;SDS011;64340;48.534;-3.036;2023-02-28T18:29:24;9.30;;;3.45;;
75718;SDS011;64340;48.534;-3.036;2023-02-28T18:31:51;11.55;;;3.20;;
75718;SDS011;64340;48.534;-3.036;2023-02-28T18:34:18;8.52;;;2.75;;
75718;SDS011;64340;48.534;-3.036;2023-02-28T18:36:45;8.77;;;2.50;;
75718;SDS011;64340;48.534;-3.036;2023-02-28T18:39:13;13.55;;;2.67;;
75718;SDS011;64340;48.534;-3.036;2023-02-28T18:41:39;9.80;;;3.25;;
75718;SDS011;64340;48.534;-3.036;2023-02-28T18:44:05;10.23;;;2.90;;
75718;SDS011;64340;48.534;-3.036;2023-02-28T18:46:31;11.75;;;3.42;;
75718;SDS011;64340;48.534;-3.036;2023-02-28T18:48:57;18.30;;;4.53;;
75718;SDS011;64340;48.534;-3.036;2023-02-28T18:51:25;15.60;;;5.20;;
75718;SDS011;64340;48.534;-3.036;2023-02-28T18:53:52;29.15;;;10.52;;
75718;SDS011;64340;48.534;-3.036;2023-02-28T18:56:19;35.70;;;14.50;;
75718;SDS011;64340;48.534;-3.036;2023-02-28T18:58:47;37.17;;;15.05;;
75718;SDS011;64340;48.534;-3.036;2023-02-28T19:01:31;34.78;;;14.20;;
75718;SDS011;64340;48.534;-3.036;2023-02-28T19:04:01;31.10;;;12.23;;
75718;SDS011;64340;48.534;-3.036;2023-02-28T19:06:30;21.50;;;9.30;;
75718;SDS011;64340;48.534;-3.036;2023-02-28T19:08:58;21.58;;;10.70;;
75718;SDS011;64340;48.534;-3.036;2023-02-28T19:11:25;25.67;;;8.75;;
75718;SDS011;64340;48.534;-3.036;2023-02-28T19:13:51;20.77;;;8.48;;
75718;SDS011;64340;48.534;-3.036;2023-02-28T19:16:18;14.60;;;7.25;;
75718;SDS011;64340;48.534;-3.036;2023-02-28T19:18:45;23.65;;;7.45;;
75718;SDS011;64340;48.534;-3.036;2023-02-28T19:21:12;18.50;;;7.55;;
75718;SDS011;64340;48.534;-3.036;2023-02-28T19:23:39;23.38;;;7.43;;
75718;SDS011;64340;48.534;-3.036;2023-02-28T19:26:08;21.15;;;6.50;;
75718;SDS011;64340;48.534;-3.036;2023-02-28T19:28:35;14.00;;;6.07;;
75718;SDS011;64340;48.534;-3.036;2023-02-28T19:31:02;21.75;;;6.25;;
75718;SDS011;64340;48.534;-3.036;2023-02-28T19:33:28;20.10;;;6.25;;
75718;SDS011;64340;48.534;-3.036;2023-02-28T19:35:54;15.05;;;5.70;;
75718;SDS011;64340;48.534;-3.036;2023-02-28T19:38:24;16.10;;;5.75;;
75718;SDS011;64340;48.534;-3.036;2023-02-28T19:40:49;15.25;;;5.70;;
75718;SDS011;64340;48.534;-3.036;2023-02-28T19:43:27;16.33;;;4.78;;
75718;SDS011;64340;48.534;-3.036;2023-02-28T19:45:52;14.55;;;4.75;;
75718;SDS011;64340;48.534;-3.036;2023-02-28T19:48:18;12.15;;;5.00;;
75718;SDS011;64340;48.534;-3.036;2023-02-28T19:50:49;13.32;;;4.75;;
75718;SDS011;64340;48.534;-3.036;2023-02-28T19:53:15;9.23;;;4.18;;
75718;SDS011;64340;48.534;-3.036;2023-02-28T19:55:41;11.82;;;4.55;;
75718;SDS011;64340;48.534;-3.036;2023-02-28T19:58:06;11.20;;;5.13;;
75718;SDS011;64340;48.534;-3.036;2023-02-28T20:00:32;15.95;;;4.43;;
75718;SDS011;64340;48.534;-3.036;2023-02-28T20:02:58;12.30;;;4.47;;
75718;SDS011;64340;48.534;-3.036;2023-02-28T20:05:24;8.68;;;3.70;;
75718;SDS011;64340;48.534;-3.036;2023-02-28T20:07:49;9.35;;;4.10;;
75718;SDS011;64340;48.534;-3.036;2023-02-28T20:10:15;10.98;;;3.65;;
75718;SDS011;64340;48.534;-3.036;2023-02-28T20:12:41;10.55;;;3.90;;
75718;SDS011;64340;48.534;-3.036;2023-02-28T20:15:07;13.20;;;3.90;;
75718;SDS011;64340;48.534;-3.036;2023-02-28T20:17:33;11.77;;;3.60;;
75718;SDS011;64340;48.534;-3.036;2023-02-28T20:19:59;11.77;;;3.97;;
75718;SDS011;64340;48.534;-3.036;2023-02-28T20:22:25;10.38;;;3.55;;
75718;SDS011;64340;48.534;-3.036;2023-02-28T20:24:51;11.98;;;3.88;;